Sunday, December 16, 2018, 10:10 AM EST
Back to Local

KHUL, Houlton Int'l Airport

Location: Houlton, ME, United States Lat: 46.117
Local Time: 10:10 AM EST (15:10 GMT) Lon: -67.8
Time Zone: US/Eastern Elev: 492 ft

Show me the last for .
Show Decoded

2018-12-16 09:53 METAR KHUL 161453Z AUTO 00000KT 10SM CLR M04/M04 A3020 RMK AO2 SLP237 I3000
                 T10391044 58005 TSNO =
2018-12-16 08:53 METAR KHUL 161353Z AUTO 19003KT 10SM CLR M08/M08 A3023 RMK AO2 SLP248 T10781078
                 TSNO =
2018-12-16 07:53 METAR KHUL 161253Z AUTO 00000KT 10SM CLR M11/M11 A3022 RMK AO2 SLP242 I1000
                 T11061111 TSNO =
2018-12-16 06:53 METAR KHUL 161153Z AUTO 00000KT 10SM CLR M12/M13 A3022 RMK AO2 SLP243 I6000
                 T11221128 11028 21122 55006 TSNO =
2018-12-16 05:53 METAR KHUL 161053Z AUTO 00000KT 10SM CLR M09/M11 A3021 RMK AO2 SLP239 I1000
                 T10941106 TSNO =
2018-12-16 04:53 METAR KHUL 160953Z AUTO 00000KT 9SM CLR M08/M08 A3022 RMK AO2 SLP241 I1000
                 T10781083 TSNO =
2018-12-16 03:53 METAR KHUL 160853Z AUTO 00000KT 9SM CLR M07/M07 A3024 RMK AO2 SLP248 I1000 I3000
                 T10721072 53007 TSNO =
2018-12-16 02:53 METAR KHUL 160753Z AUTO 00000KT 9SM CLR M04/M04 A3021 RMK AO2 SLP238 I1000
                 T10441044 TSNO =
2018-12-16 01:53 METAR KHUL 160653Z AUTO 00000KT 8SM CLR M06/M06 A3022 RMK AO2 SLP241 I1000
                 T10561056 TSNO =
2018-12-16 00:53 METAR KHUL 160553Z AUTO 00000KT 9SM CLR M03/M04 A3022 RMK AO2 SLP240 I1000 I6001
                 T10281039 10006 21050 50005 TSNO =
2018-12-15 23:53 METAR KHUL 160453Z AUTO 00000KT 8SM CLR M03/M03 A3022 RMK AO2 SLP240 I1001
                 T10281033 400391033 TSNO =
2018-12-15 22:53 METAR KHUL 160353Z AUTO 30003KT 9SM CLR M03/M03 A3021 RMK AO2 SLP238 I1000
                 T10281033 TSNO =
2018-12-15 21:53 METAR KHUL 160253Z AUTO 00000KT 9SM CLR M02/M03 A3020 RMK AO2 SLP235 T10221028
                 51008 TSNO =
2018-12-15 20:53 METAR KHUL 160153Z AUTO 27005KT 10SM CLR M01/M02 A3019 RMK AO2 SLP231 T10111022
                 TSNO =
2018-12-15 19:53 METAR KHUL 160053Z AUTO 27003KT 10SM FEW038 00/M02 A3019 RMK AO2 SLP231
                 T00001022 TSNO =
2018-12-15 18:53 METAR KHUL 152353Z AUTO VRB03KT 10SM CLR 00/M02 A3018 RMK AO2 SLP226 T00001017
                 10039 20000 53016 TSNO =
2018-12-15 17:53 METAR KHUL 152253Z AUTO 24006KT 10SM CLR 01/M02 A3016 RMK AO2 SLP219 T00061017
                 TSNO =
2018-12-15 16:53 METAR KHUL 152153Z AUTO 28005KT 10SM BKN046 02/M01 A3015 RMK AO2 SLP214
                 T00171011 TSNO =
2018-12-15 15:53 METAR KHUL 152053Z AUTO 30005KT 10SM CLR 03/M01 A3013 RMK AO2 SLP209 T00281011
                 53027 TSNO =
2018-12-15 14:53 METAR KHUL 151953Z AUTO VRB06KT 10SM SCT055 03/M01 A3010 RMK AO2 PRESRR SLP200
                 T00331011 TSNO =
2018-12-15 13:53 METAR KHUL 151853Z AUTO 28007KT 10SM OVC060 03/M01 A3006 RMK AO2 SLP186
                 T00331006 TSNO =
2018-12-15 12:53 METAR KHUL 151753Z AUTO 26005KT 10SM FEW025 OVC060 03/M01 A3005 RMK AO2 SLP182
                 60000 T00331006 10039 20000 55001 =
2018-12-15 11:53 METAR KHUL 151653Z AUTO 27008KT 10SM OVC055 03/M01 A3005 RMK AO2 SLP180
                 T00281006 =
2018-12-15 10:53 METAR KHUL 151553Z AUTO 29012KT 10SM FEW024 OVC050 03/M01 A3003 RMK AO2 SLP176
                 T00331006 =

Support USWX by starting your Amazon purchase here.